FWKI/LLW METAR and TAF weather

Enter ICAO airport designator
Station Type Date Time Source
FWKI METAR 2022/06/28 08:00 UTC NOAA

FWKI 280800Z 13009KT 9999 BKN020 16/14 Q1027 NOSIG


Station Type Date Time Source
FWKI Decoded METAR 2022/06/28 08:00 UTC NOAA

Lilongwe International Airport, Malawi (FWKI) 13-47S 033-46E 1229M
Jun 28, 2022 - 04:00 AM EDT / 2022.06.28 0800 UTC
Wind: from the SE (130 degrees) at 10 MPH (9 KT):0
Visibility: greater than 7 mile(s):0
Sky conditions: mostly cloudy
Temperature: 60 F (16 C)
Dew Point: 57 F (14 C)
Relative Humidity: 87%
Pressure (altimeter): 30.33 in. Hg (1027 hPa)
ob: FWKI 280800Z 13009KT 9999 BKN020 16/14 Q1027 NOSIG
cycle: 8

Station Type Date Time Source
FWKI TAF 2022/06/28 06:33 UTC NOAA

TAF TAF FWKI 280400Z 2806/2912 14011KT 9999 -DZRA BKN015 BKN070
BECMG 2808/2810 9999 BKN020 BKN070

Example: see airport list